sensor_id;sensor_type;location;lat;lon;timestamp;P1;durP1;ratioP1;P2;durP2;ratioP2
24585;SDS011;12743;52.262;6.172;2022-07-01T00:00:27;8.38;;;5.20;;
24585;SDS011;12743;52.262;6.172;2022-07-01T00:02:53;10.27;;;6.00;;
24585;SDS011;12743;52.262;6.172;2022-07-01T00:05:18;9.67;;;5.97;;
24585;SDS011;12743;52.262;6.172;2022-07-01T00:07:44;9.77;;;4.83;;
24585;SDS011;12743;52.262;6.172;2022-07-01T00:10:09;8.10;;;5.20;;
24585;SDS011;12743;52.262;6.172;2022-07-01T00:12:35;7.70;;;4.82;;
24585;SDS011;12743;52.262;6.172;2022-07-01T00:15:01;7.67;;;4.00;;
24585;SDS011;12743;52.262;6.172;2022-07-01T00:17:26;5.20;;;2.87;;
24585;SDS011;12743;52.262;6.172;2022-07-01T00:19:51;7.27;;;3.73;;
24585;SDS011;12743;52.262;6.172;2022-07-01T00:22:17;6.50;;;3.90;;
24585;SDS011;12743;52.262;6.172;2022-07-01T00:24:42;5.72;;;2.78;;
24585;SDS011;12743;52.262;6.172;2022-07-01T00:27:08;4.90;;;1.70;;
24585;SDS011;12743;52.262;6.172;2022-07-01T00:29:33;6.33;;;3.57;;
24585;SDS011;12743;52.262;6.172;2022-07-01T00:31:59;7.87;;;4.50;;
24585;SDS011;12743;52.262;6.172;2022-07-01T00:34:24;9.07;;;5.20;;
24585;SDS011;12743;52.262;6.172;2022-07-01T00:36:50;9.57;;;5.10;;
24585;SDS011;12743;52.262;6.172;2022-07-01T00:39:15;8.68;;;4.00;;
24585;SDS011;12743;52.262;6.172;2022-07-01T00:41:41;8.63;;;4.73;;
24585;SDS011;12743;52.262;6.172;2022-07-01T00:44:15;11.00;;;5.45;;
24585;SDS011;12743;52.262;6.172;2022-07-01T00:46:46;6.90;;;3.83;;
24585;SDS011;12743;52.262;6.172;2022-07-01T00:49:14;10.60;;;5.88;;
24585;SDS011;12743;52.262;6.172;2022-07-01T00:51:40;7.38;;;4.47;;
24585;SDS011;12743;52.262;6.172;2022-07-01T00:54:06;11.70;;;6.80;;
24585;SDS011;12743;52.262;6.172;2022-07-01T00:56:31;12.17;;;6.97;;
24585;SDS011;12743;52.262;6.172;2022-07-01T00:58:57;10.80;;;7.28;;
24585;SDS011;12743;52.262;6.172;2022-07-01T01:01:22;12.30;;;8.10;;
24585;SDS011;12743;52.262;6.172;2022-07-01T01:03:48;8.90;;;5.77;;
24585;SDS011;12743;52.262;6.172;2022-07-01T01:06:15;12.82;;;7.63;;
24585;SDS011;12743;52.262;6.172;2022-07-01T01:08:41;13.70;;;9.07;;
24585;SDS011;12743;52.262;6.172;2022-07-01T01:11:07;10.70;;;6.60;;
24585;SDS011;12743;52.262;6.172;2022-07-01T01:13:32;12.98;;;7.38;;
24585;SDS011;12743;52.262;6.172;2022-07-01T01:15:58;14.53;;;9.63;;
24585;SDS011;12743;52.262;6.172;2022-07-01T01:18:23;10.57;;;5.68;;
24585;SDS011;12743;52.262;6.172;2022-07-01T01:20:49;16.93;;;11.47;;
24585;SDS011;12743;52.262;6.172;2022-07-01T01:23:14;14.77;;;9.43;;
24585;SDS011;12743;52.262;6.172;2022-07-01T01:25:39;17.23;;;10.77;;
24585;SDS011;12743;52.262;6.172;2022-07-01T01:28:05;17.03;;;11.53;;
24585;SDS011;12743;52.262;6.172;2022-07-01T01:30:30;16.67;;;9.80;;
24585;SDS011;12743;52.262;6.172;2022-07-01T01:32:56;16.77;;;12.20;;
24585;SDS011;12743;52.262;6.172;2022-07-01T01:35:21;17.13;;;11.60;;
24585;SDS011;12743;52.262;6.172;2022-07-01T01:37:47;11.40;;;6.63;;
24585;SDS011;12743;52.262;6.172;2022-07-01T01:40:13;15.82;;;9.95;;
24585;SDS011;12743;52.262;6.172;2022-07-01T01:42:39;17.05;;;11.50;;
24585;SDS011;12743;52.262;6.172;2022-07-01T01:45:05;15.40;;;10.55;;
24585;SDS011;12743;52.262;6.172;2022-07-01T01:47:31;19.03;;;11.90;;
24585;SDS011;12743;52.262;6.172;2022-07-01T01:49:57;18.60;;;12.10;;
24585;SDS011;12743;52.262;6.172;2022-07-01T01:52:22;17.10;;;12.03;;
24585;SDS011;12743;52.262;6.172;2022-07-01T01:54:48;20.53;;;13.47;;
24585;SDS011;12743;52.262;6.172;2022-07-01T01:57:14;20.27;;;12.48;;
24585;SDS011;12743;52.262;6.172;2022-07-01T01:59:39;17.60;;;10.30;;
24585;SDS011;12743;52.262;6.172;2022-07-01T02:02:05;14.07;;;8.60;;
24585;SDS011;12743;52.262;6.172;2022-07-01T02:04:30;17.97;;;11.67;;
24585;SDS011;12743;52.262;6.172;2022-07-01T02:06:56;21.48;;;13.25;;
24585;SDS011;12743;52.262;6.172;2022-07-01T02:09:22;16.33;;;10.83;;
24585;SDS011;12743;52.262;6.172;2022-07-01T02:11:47;20.58;;;11.60;;
24585;SDS011;12743;52.262;6.172;2022-07-01T02:14:13;21.37;;;12.13;;
24585;SDS011;12743;52.262;6.172;2022-07-01T02:16:38;16.57;;;11.23;;
24585;SDS011;12743;52.262;6.172;2022-07-01T02:19:03;17.47;;;12.27;;
24585;SDS011;12743;52.262;6.172;2022-07-01T02:21:29;19.05;;;13.35;;
24585;SDS011;12743;52.262;6.172;2022-07-01T02:23:54;18.70;;;12.53;;
24585;SDS011;12743;52.262;6.172;2022-07-01T02:26:20;23.73;;;15.47;;
24585;SDS011;12743;52.262;6.172;2022-07-01T02:28:45;13.00;;;7.20;;
24585;SDS011;12743;52.262;6.172;2022-07-01T02:31:11;22.50;;;15.18;;
24585;SDS011;12743;52.262;6.172;2022-07-01T02:33:36;22.30;;;13.03;;
24585;SDS011;12743;52.262;6.172;2022-07-01T02:36:02;18.23;;;12.20;;
24585;SDS011;12743;52.262;6.172;2022-07-01T02:38:27;20.60;;;13.10;;
24585;SDS011;12743;52.262;6.172;2022-07-01T02:40:53;23.10;;;15.23;;
24585;SDS011;12743;52.262;6.172;2022-07-01T02:43:18;23.43;;;13.97;;
24585;SDS011;12743;52.262;6.172;2022-07-01T02:45:44;26.57;;;16.30;;
24585;SDS011;12743;52.262;6.172;2022-07-01T02:48:09;22.98;;;14.88;;
24585;SDS011;12743;52.262;6.172;2022-07-01T02:50:34;22.93;;;14.73;;
24585;SDS011;12743;52.262;6.172;2022-07-01T02:53:00;22.90;;;14.10;;
24585;SDS011;12743;52.262;6.172;2022-07-01T02:55:25;20.97;;;14.03;;
24585;SDS011;12743;52.262;6.172;2022-07-01T02:57:51;25.75;;;15.82;;
24585;SDS011;12743;52.262;6.172;2022-07-01T03:00:18;22.27;;;14.07;;
24585;SDS011;12743;52.262;6.172;2022-07-01T03:02:44;18.77;;;11.55;;
24585;SDS011;12743;52.262;6.172;2022-07-01T03:05:10;23.52;;;15.85;;
24585;SDS011;12743;52.262;6.172;2022-07-01T03:07:36;25.83;;;15.17;;
24585;SDS011;12743;52.262;6.172;2022-07-01T03:10:03;21.10;;;13.55;;
24585;SDS011;12743;52.262;6.172;2022-07-01T03:12:29;21.70;;;15.05;;
24585;SDS011;12743;52.262;6.172;2022-07-01T03:14:55;17.07;;;11.47;;
24585;SDS011;12743;52.262;6.172;2022-07-01T03:17:25;27.10;;;17.23;;
24585;SDS011;12743;52.262;6.172;2022-07-01T03:19:52;19.52;;;12.65;;
24585;SDS011;12743;52.262;6.172;2022-07-01T03:22:18;26.27;;;15.82;;
24585;SDS011;12743;52.262;6.172;2022-07-01T03:24:45;25.33;;;16.97;;
24585;SDS011;12743;52.262;6.172;2022-07-01T03:27:10;24.60;;;15.40;;
24585;SDS011;12743;52.262;6.172;2022-07-01T03:29:35;23.40;;;14.43;;
24585;SDS011;12743;52.262;6.172;2022-07-01T03:32:01;25.97;;;16.13;;
24585;SDS011;12743;52.262;6.172;2022-07-01T03:34:27;26.75;;;16.95;;
24585;SDS011;12743;52.262;6.172;2022-07-01T03:36:53;24.63;;;15.87;;
24585;SDS011;12743;52.262;6.172;2022-07-01T03:39:18;29.53;;;17.13;;
24585;SDS011;12743;52.262;6.172;2022-07-01T03:41:43;23.40;;;14.20;;
24585;SDS011;12743;52.262;6.172;2022-07-01T03:44:09;26.80;;;17.13;;
24585;SDS011;12743;52.262;6.172;2022-07-01T03:46:34;21.83;;;14.47;;
24585;SDS011;12743;52.262;6.172;2022-07-01T03:49:01;31.05;;;18.88;;
24585;SDS011;12743;52.262;6.172;2022-07-01T03:51:27;29.58;;;19.33;;
24585;SDS011;12743;52.262;6.172;2022-07-01T03:53:52;28.80;;;19.30;;
24585;SDS011;12743;52.262;6.172;2022-07-01T03:56:37;30.50;;;19.15;;
24585;SDS011;12743;52.262;6.172;2022-07-01T03:59:02;32.93;;;18.07;;
24585;SDS011;12743;52.262;6.172;2022-07-01T04:01:27;24.23;;;15.15;;
24585;SDS011;12743;52.262;6.172;2022-07-01T04:03:53;29.70;;;18.67;;
24585;SDS011;12743;52.262;6.172;2022-07-01T04:06:18;27.53;;;17.60;;
24585;SDS011;12743;52.262;6.172;2022-07-01T04:08:45;32.60;;;19.70;;
24585;SDS011;12743;52.262;6.172;2022-07-01T04:11:11;25.92;;;17.02;;
24585;SDS011;12743;52.262;6.172;2022-07-01T04:13:37;32.80;;;20.67;;
24585;SDS011;12743;52.262;6.172;2022-07-01T04:16:04;30.67;;;18.30;;
24585;SDS011;12743;52.262;6.172;2022-07-01T04:18:29;33.10;;;20.90;;
24585;SDS011;12743;52.262;6.172;2022-07-01T04:20:55;32.40;;;20.88;;
24585;SDS011;12743;52.262;6.172;2022-07-01T04:23:40;31.13;;;19.35;;
24585;SDS011;12743;52.262;6.172;2022-07-01T04:26:05;28.10;;;18.27;;
24585;SDS011;12743;52.262;6.172;2022-07-01T04:28:31;33.10;;;20.67;;
24585;SDS011;12743;52.262;6.172;2022-07-01T04:30:56;26.47;;;16.17;;
24585;SDS011;12743;52.262;6.172;2022-07-01T04:33:21;32.47;;;18.67;;
24585;SDS011;12743;52.262;6.172;2022-07-01T04:35:47;39.20;;;21.97;;
24585;SDS011;12743;52.262;6.172;2022-07-01T04:38:12;29.07;;;17.23;;
24585;SDS011;12743;52.262;6.172;2022-07-01T04:40:38;35.13;;;21.17;;
24585;SDS011;12743;52.262;6.172;2022-07-01T04:43:03;33.07;;;21.07;;
24585;SDS011;12743;52.262;6.172;2022-07-01T04:45:28;36.70;;;22.13;;
24585;SDS011;12743;52.262;6.172;2022-07-01T04:47:54;33.47;;;21.77;;
24585;SDS011;12743;52.262;6.172;2022-07-01T04:50:19;33.30;;;20.63;;
24585;SDS011;12743;52.262;6.172;2022-07-01T04:52:44;30.60;;;19.10;;
24585;SDS011;12743;52.262;6.172;2022-07-01T04:55:10;35.93;;;22.47;;
24585;SDS011;12743;52.262;6.172;2022-07-01T04:57:35;25.90;;;16.87;;
24585;SDS011;12743;52.262;6.172;2022-07-01T05:00:01;32.97;;;21.00;;
24585;SDS011;12743;52.262;6.172;2022-07-01T05:02:26;36.00;;;18.53;;
24585;SDS011;12743;52.262;6.172;2022-07-01T05:04:51;34.33;;;21.50;;
24585;SDS011;12743;52.262;6.172;2022-07-01T05:07:17;34.80;;;20.33;;
24585;SDS011;12743;52.262;6.172;2022-07-01T05:09:55;28.10;;;17.17;;
24585;SDS011;12743;52.262;6.172;2022-07-01T05:12:21;24.10;;;14.57;;
24585;SDS011;12743;52.262;6.172;2022-07-01T05:14:47;32.83;;;20.67;;
24585;SDS011;12743;52.262;6.172;2022-07-01T05:17:12;32.88;;;18.98;;
24585;SDS011;12743;52.262;6.172;2022-07-01T05:19:38;32.00;;;18.37;;
24585;SDS011;12743;52.262;6.172;2022-07-01T05:22:22;35.97;;;19.70;;
24585;SDS011;12743;52.262;6.172;2022-07-01T05:24:47;28.70;;;17.47;;
24585;SDS011;12743;52.262;6.172;2022-07-01T05:27:13;22.13;;;13.43;;
24585;SDS011;12743;52.262;6.172;2022-07-01T05:29:38;29.10;;;17.48;;
24585;SDS011;12743;52.262;6.172;2022-07-01T05:32:04;34.60;;;19.27;;
24585;SDS011;12743;52.262;6.172;2022-07-01T05:34:30;30.52;;;17.73;;
24585;SDS011;12743;52.262;6.172;2022-07-01T05:36:55;32.87;;;18.90;;
24585;SDS011;12743;52.262;6.172;2022-07-01T05:39:21;33.72;;;19.58;;
24585;SDS011;12743;52.262;6.172;2022-07-01T05:41:47;34.53;;;19.00;;
24585;SDS011;12743;52.262;6.172;2022-07-01T05:44:12;31.17;;;18.77;;
24585;SDS011;12743;52.262;6.172;2022-07-01T05:46:38;30.43;;;17.43;;
24585;SDS011;12743;52.262;6.172;2022-07-01T05:49:04;33.45;;;19.20;;
24585;SDS011;12743;52.262;6.172;2022-07-01T05:51:29;30.15;;;17.85;;
24585;SDS011;12743;52.262;6.172;2022-07-01T05:53:55;31.37;;;19.07;;
24585;SDS011;12743;52.262;6.172;2022-07-01T05:56:21;29.42;;;18.27;;
24585;SDS011;12743;52.262;6.172;2022-07-01T05:58:47;29.83;;;16.90;;
24585;SDS011;12743;52.262;6.172;2022-07-01T06:01:12;26.60;;;15.43;;
24585;SDS011;12743;52.262;6.172;2022-07-01T06:03:38;21.08;;;13.70;;
24585;SDS011;12743;52.262;6.172;2022-07-01T06:06:03;31.37;;;18.27;;
24585;SDS011;12743;52.262;6.172;2022-07-01T06:08:29;30.00;;;15.35;;
24585;SDS011;12743;52.262;6.172;2022-07-01T06:10:54;28.53;;;15.43;;
24585;SDS011;12743;52.262;6.172;2022-07-01T06:13:20;26.63;;;14.57;;
24585;SDS011;12743;52.262;6.172;2022-07-01T06:15:45;23.70;;;13.10;;
24585;SDS011;12743;52.262;6.172;2022-07-01T06:18:11;25.13;;;14.82;;
24585;SDS011;12743;52.262;6.172;2022-07-01T06:20:36;25.30;;;14.97;;
24585;SDS011;12743;52.262;6.172;2022-07-01T06:23:02;24.57;;;14.03;;
24585;SDS011;12743;52.262;6.172;2022-07-01T06:25:27;25.07;;;14.77;;
24585;SDS011;12743;52.262;6.172;2022-07-01T06:27:52;27.85;;;15.77;;
24585;SDS011;12743;52.262;6.172;2022-07-01T06:30:18;27.83;;;16.03;;
24585;SDS011;12743;52.262;6.172;2022-07-01T06:32:43;27.57;;;16.17;;
24585;SDS011;12743;52.262;6.172;2022-07-01T06:35:09;23.50;;;14.70;;
24585;SDS011;12743;52.262;6.172;2022-07-01T06:37:34;30.60;;;16.43;;
24585;SDS011;12743;52.262;6.172;2022-07-01T06:40:02;33.03;;;16.25;;
24585;SDS011;12743;52.262;6.172;2022-07-01T06:42:28;24.17;;;14.20;;
24585;SDS011;12743;52.262;6.172;2022-07-01T06:44:54;28.97;;;16.63;;
24585;SDS011;12743;52.262;6.172;2022-07-01T06:47:19;32.77;;;16.50;;
24585;SDS011;12743;52.262;6.172;2022-07-01T06:49:44;26.35;;;15.38;;
24585;SDS011;12743;52.262;6.172;2022-07-01T06:52:10;29.17;;;16.37;;
24585;SDS011;12743;52.262;6.172;2022-07-01T06:54:35;25.00;;;15.37;;
24585;SDS011;12743;52.262;6.172;2022-07-01T06:57:04;27.08;;;15.23;;
24585;SDS011;12743;52.262;6.172;2022-07-01T06:59:30;26.07;;;15.93;;
24585;SDS011;12743;52.262;6.172;2022-07-01T07:01:55;28.90;;;16.50;;
24585;SDS011;12743;52.262;6.172;2022-07-01T07:04:21;24.10;;;14.00;;
24585;SDS011;12743;52.262;6.172;2022-07-01T07:06:46;20.43;;;12.17;;
24585;SDS011;12743;52.262;6.172;2022-07-01T07:09:11;29.63;;;16.67;;
24585;SDS011;12743;52.262;6.172;2022-07-01T07:11:37;26.47;;;14.90;;
24585;SDS011;12743;52.262;6.172;2022-07-01T07:14:02;25.02;;;15.73;;
24585;SDS011;12743;52.262;6.172;2022-07-01T07:16:28;26.17;;;15.67;;
24585;SDS011;12743;52.262;6.172;2022-07-01T07:18:53;28.73;;;16.20;;
24585;SDS011;12743;52.262;6.172;2022-07-01T07:21:18;28.17;;;16.53;;
24585;SDS011;12743;52.262;6.172;2022-07-01T07:23:44;26.67;;;15.07;;
24585;SDS011;12743;52.262;6.172;2022-07-01T07:26:09;29.50;;;16.25;;
24585;SDS011;12743;52.262;6.172;2022-07-01T07:28:35;28.00;;;15.20;;
24585;SDS011;12743;52.262;6.172;2022-07-01T07:31:00;25.97;;;14.77;;
24585;SDS011;12743;52.262;6.172;2022-07-01T07:33:26;23.77;;;14.32;;
24585;SDS011;12743;52.262;6.172;2022-07-01T07:35:51;26.03;;;14.93;;
24585;SDS011;12743;52.262;6.172;2022-07-01T07:38:17;26.10;;;14.60;;
24585;SDS011;12743;52.262;6.172;2022-07-01T07:40:42;25.90;;;14.25;;
24585;SDS011;12743;52.262;6.172;2022-07-01T07:43:08;20.87;;;12.77;;
24585;SDS011;12743;52.262;6.172;2022-07-01T07:45:33;23.03;;;13.37;;
24585;SDS011;12743;52.262;6.172;2022-07-01T07:47:59;23.20;;;12.50;;
24585;SDS011;12743;52.262;6.172;2022-07-01T07:50:25;24.07;;;13.80;;
24585;SDS011;12743;52.262;6.172;2022-07-01T07:52:51;23.15;;;13.85;;
24585;SDS011;12743;52.262;6.172;2022-07-01T07:55:17;20.92;;;12.80;;
24585;SDS011;12743;52.262;6.172;2022-07-01T07:57:42;22.07;;;12.17;;
24585;SDS011;12743;52.262;6.172;2022-07-01T08:00:09;18.70;;;12.03;;
24585;SDS011;12743;52.262;6.172;2022-07-01T08:02:39;22.40;;;12.10;;
24585;SDS011;12743;52.262;6.172;2022-07-01T08:05:06;16.60;;;10.43;;
24585;SDS011;12743;52.262;6.172;2022-07-01T08:07:36;19.80;;;12.52;;
24585;SDS011;12743;52.262;6.172;2022-07-01T08:10:04;20.33;;;11.70;;
24585;SDS011;12743;52.262;6.172;2022-07-01T08:12:33;21.05;;;11.90;;
24585;SDS011;12743;52.262;6.172;2022-07-01T08:14:59;16.00;;;10.23;;
24585;SDS011;12743;52.262;6.172;2022-07-01T08:17:25;20.63;;;11.07;;
24585;SDS011;12743;52.262;6.172;2022-07-01T08:19:51;18.58;;;9.63;;
24585;SDS011;12743;52.262;6.172;2022-07-01T08:22:16;18.77;;;10.68;;
24585;SDS011;12743;52.262;6.172;2022-07-01T08:24:42;19.47;;;9.70;;
24585;SDS011;12743;52.262;6.172;2022-07-01T08:27:07;18.47;;;9.20;;
24585;SDS011;12743;52.262;6.172;2022-07-01T08:29:33;18.50;;;9.57;;
24585;SDS011;12743;52.262;6.172;2022-07-01T08:31:58;19.30;;;10.83;;
24585;SDS011;12743;52.262;6.172;2022-07-01T08:34:23;19.17;;;11.23;;
24585;SDS011;12743;52.262;6.172;2022-07-01T08:36:49;18.07;;;9.53;;
24585;SDS011;12743;52.262;6.172;2022-07-01T08:39:14;17.57;;;9.60;;
24585;SDS011;12743;52.262;6.172;2022-07-01T08:41:40;14.17;;;7.87;;
24585;SDS011;12743;52.262;6.172;2022-07-01T08:44:06;17.70;;;10.25;;
24585;SDS011;12743;52.262;6.172;2022-07-01T08:46:33;16.33;;;8.97;;
24585;SDS011;12743;52.262;6.172;2022-07-01T08:48:59;21.98;;;8.60;;
24585;SDS011;12743;52.262;6.172;2022-07-01T08:51:24;13.00;;;7.33;;
24585;SDS011;12743;52.262;6.172;2022-07-01T08:53:49;14.20;;;6.97;;
24585;SDS011;12743;52.262;6.172;2022-07-01T08:56:15;15.60;;;5.33;;
24585;SDS011;12743;52.262;6.172;2022-07-01T08:58:59;8.57;;;4.70;;
24585;SDS011;12743;52.262;6.172;2022-07-01T09:01:25;11.20;;;4.60;;
24585;SDS011;12743;52.262;6.172;2022-07-01T09:03:52;11.38;;;5.15;;
24585;SDS011;12743;52.262;6.172;2022-07-01T09:06:28;8.60;;;4.03;;
24585;SDS011;12743;52.262;6.172;2022-07-01T09:08:54;14.13;;;4.50;;
24585;SDS011;12743;52.262;6.172;2022-07-01T09:11:20;9.70;;;4.47;;
24585;SDS011;12743;52.262;6.172;2022-07-01T09:16:43;11.57;;;4.10;;
24585;SDS011;12743;52.262;6.172;2022-07-01T09:19:09;10.98;;;3.90;;
24585;SDS011;12743;52.262;6.172;2022-07-01T09:21:35;9.45;;;4.40;;
24585;SDS011;12743;52.262;6.172;2022-07-01T09:24:05;10.37;;;3.97;;
24585;SDS011;12743;52.262;6.172;2022-07-01T09:27:07;9.02;;;4.20;;
24585;SDS011;12743;52.262;6.172;2022-07-01T09:32:11;8.55;;;3.95;;
24585;SDS011;12743;52.262;6.172;2022-07-01T09:37:20;9.23;;;3.67;;
24585;SDS011;12743;52.262;6.172;2022-07-01T09:39:47;8.20;;;3.60;;
24585;SDS011;12743;52.262;6.172;2022-07-01T09:42:15;8.18;;;3.30;;
24585;SDS011;12743;52.262;6.172;2022-07-01T09:47:33;12.23;;;2.90;;
24585;SDS011;12743;52.262;6.172;2022-07-01T09:50:00;14.02;;;3.10;;
24585;SDS011;12743;52.262;6.172;2022-07-01T09:52:27;7.20;;;1.88;;
24585;SDS011;12743;52.262;6.172;2022-07-01T09:54:53;8.30;;;2.30;;
24585;SDS011;12743;52.262;6.172;2022-07-01T09:57:19;4.47;;;1.63;;
24585;SDS011;12743;52.262;6.172;2022-07-01T09:59:45;4.55;;;1.13;;
24585;SDS011;12743;52.262;6.172;2022-07-01T10:02:11;5.70;;;1.27;;
24585;SDS011;12743;52.262;6.172;2022-07-01T10:04:37;5.07;;;0.90;;
24585;SDS011;12743;52.262;6.172;2022-07-01T10:12:38;11.25;;;1.20;;
24585;SDS011;12743;52.262;6.172;2022-07-01T10:15:08;3.47;;;0.80;;
24585;SDS011;12743;52.262;6.172;2022-07-01T10:17:37;4.30;;;0.98;;
24585;SDS011;12743;52.262;6.172;2022-07-01T10:20:16;12.00;;;1.27;;
24585;SDS011;12743;52.262;6.172;2022-07-01T10:25:35;4.47;;;0.77;;
24585;SDS011;12743;52.262;6.172;2022-07-01T10:30:56;5.03;;;0.98;;
24585;SDS011;12743;52.262;6.172;2022-07-01T10:35:55;3.95;;;0.82;;
24585;SDS011;12743;52.262;6.172;2022-07-01T10:38:30;5.32;;;0.82;;
24585;SDS011;12743;52.262;6.172;2022-07-01T10:40:55;5.43;;;0.83;;
24585;SDS011;12743;52.262;6.172;2022-07-01T10:43:35;2.30;;;0.60;;
24585;SDS011;12743;52.262;6.172;2022-07-01T10:46:01;3.88;;;0.60;;
24585;SDS011;12743;52.262;6.172;2022-07-01T10:48:28;3.87;;;0.50;;
24585;SDS011;12743;52.262;6.172;2022-07-01T10:50:56;3.08;;;0.47;;
24585;SDS011;12743;52.262;6.172;2022-07-01T10:53:21;5.33;;;0.70;;
24585;SDS011;12743;52.262;6.172;2022-07-01T10:55:48;4.20;;;0.60;;
24585;SDS011;12743;52.262;6.172;2022-07-01T10:58:15;4.55;;;0.70;;
24585;SDS011;12743;52.262;6.172;2022-07-01T11:00:46;5.00;;;0.65;;
24585;SDS011;12743;52.262;6.172;2022-07-01T11:03:13;5.43;;;0.75;;
24585;SDS011;12743;52.262;6.172;2022-07-01T11:05:41;4.10;;;0.70;;
24585;SDS011;12743;52.262;6.172;2022-07-01T11:08:08;6.23;;;0.80;;
24585;SDS011;12743;52.262;6.172;2022-07-01T11:10:35;3.47;;;0.68;;
24585;SDS011;12743;52.262;6.172;2022-07-01T11:13:00;5.07;;;0.63;;
24585;SDS011;12743;52.262;6.172;2022-07-01T11:15:28;2.80;;;0.50;;
24585;SDS011;12743;52.262;6.172;2022-07-01T11:17:55;4.20;;;1.00;;
24585;SDS011;12743;52.262;6.172;2022-07-01T11:20:22;3.95;;;0.32;;
24585;SDS011;12743;52.262;6.172;2022-07-01T11:22:49;2.42;;;0.40;;
24585;SDS011;12743;52.262;6.172;2022-07-01T11:25:16;4.50;;;0.57;;
24585;SDS011;12743;52.262;6.172;2022-07-01T11:27:47;5.57;;;0.43;;
24585;SDS011;12743;52.262;6.172;2022-07-01T11:30:14;4.40;;;0.30;;
24585;SDS011;12743;52.262;6.172;2022-07-01T11:32:45;1.48;;;0.30;;
24585;SDS011;12743;52.262;6.172;2022-07-01T11:35:46;2.80;;;0.50;;
24585;SDS011;12743;52.262;6.172;2022-07-01T11:38:26;4.07;;;0.30;;
24585;SDS011;12743;52.262;6.172;2022-07-01T11:41:20;1.97;;;0.30;;
24585;SDS011;12743;52.262;6.172;2022-07-01T11:43:47;4.30;;;0.40;;
24585;SDS011;12743;52.262;6.172;2022-07-01T11:46:12;1.97;;;0.27;;
24585;SDS011;12743;52.262;6.172;2022-07-01T11:48:42;8.95;;;0.65;;
24585;SDS011;12743;52.262;6.172;2022-07-01T11:53:37;4.47;;;0.30;;
24585;SDS011;12743;52.262;6.172;2022-07-01T11:56:03;4.43;;;0.40;;
24585;SDS011;12743;52.262;6.172;2022-07-01T11:58:42;3.60;;;0.40;;
24585;SDS011;12743;52.262;6.172;2022-07-01T12:03:51;3.25;;;0.40;;
24585;SDS011;12743;52.262;6.172;2022-07-01T12:06:17;4.13;;;0.30;;
24585;SDS011;12743;52.262;6.172;2022-07-01T12:08:44;4.40;;;0.30;;
24585;SDS011;12743;52.262;6.172;2022-07-01T12:11:13;9.40;;;0.77;;
24585;SDS011;12743;52.262;6.172;2022-07-01T12:13:39;2.10;;;0.30;;
24585;SDS011;12743;52.262;6.172;2022-07-01T12:16:05;1.37;;;0.30;;
24585;SDS011;12743;52.262;6.172;2022-07-01T12:18:32;2.85;;;0.30;;
24585;SDS011;12743;52.262;6.172;2022-07-01T12:20:57;2.23;;;0.40;;
24585;SDS011;12743;52.262;6.172;2022-07-01T12:23:23;3.45;;;0.38;;
24585;SDS011;12743;52.262;6.172;2022-07-01T12:25:49;3.83;;;0.30;;
24585;SDS011;12743;52.262;6.172;2022-07-01T12:30:58;3.67;;;0.30;;
24585;SDS011;12743;52.262;6.172;2022-07-01T12:33:24;4.10;;;0.35;;
24585;SDS011;12743;52.262;6.172;2022-07-01T12:35:49;3.60;;;0.43;;
24585;SDS011;12743;52.262;6.172;2022-07-01T12:38:16;5.27;;;0.53;;
24585;SDS011;12743;52.262;6.172;2022-07-01T12:40:41;3.07;;;0.50;;
24585;SDS011;12743;52.262;6.172;2022-07-01T12:43:21;3.10;;;0.40;;
24585;SDS011;12743;52.262;6.172;2022-07-01T12:45:47;3.87;;;0.40;;
24585;SDS011;12743;52.262;6.172;2022-07-01T12:48:13;4.97;;;0.40;;
24585;SDS011;12743;52.262;6.172;2022-07-01T12:50:38;4.37;;;0.40;;
24585;SDS011;12743;52.262;6.172;2022-07-01T12:58:02;4.32;;;0.43;;
24585;SDS011;12743;52.262;6.172;2022-07-01T13:00:29;3.23;;;0.30;;
24585;SDS011;12743;52.262;6.172;2022-07-01T13:03:08;5.63;;;0.60;;
24585;SDS011;12743;52.262;6.172;2022-07-01T13:05:34;2.72;;;0.40;;
24585;SDS011;12743;52.262;6.172;2022-07-01T13:08:01;5.00;;;0.30;;
24585;SDS011;12743;52.262;6.172;2022-07-01T13:10:28;2.80;;;0.30;;
24585;SDS011;12743;52.262;6.172;2022-07-01T13:12:53;2.03;;;0.30;;
24585;SDS011;12743;52.262;6.172;2022-07-01T13:15:19;3.00;;;0.35;;
24585;SDS011;12743;52.262;6.172;2022-07-01T13:17:45;3.70;;;0.40;;
24585;SDS011;12743;52.262;6.172;2022-07-01T13:20:12;3.00;;;0.30;;
24585;SDS011;12743;52.262;6.172;2022-07-01T13:22:38;4.57;;;0.40;;
24585;SDS011;12743;52.262;6.172;2022-07-01T13:25:04;2.55;;;0.40;;
24585;SDS011;12743;52.262;6.172;2022-07-01T13:27:30;3.50;;;0.60;;
24585;SDS011;12743;52.262;6.172;2022-07-01T13:29:55;2.33;;;0.30;;
24585;SDS011;12743;52.262;6.172;2022-07-01T13:32:22;4.30;;;0.40;;
24585;SDS011;12743;52.262;6.172;2022-07-01T13:34:48;4.20;;;0.55;;
24585;SDS011;12743;52.262;6.172;2022-07-01T13:37:14;2.17;;;0.40;;
24585;SDS011;12743;52.262;6.172;2022-07-01T13:39:40;5.20;;;0.50;;
24585;SDS011;12743;52.262;6.172;2022-07-01T13:42:06;4.27;;;0.50;;
24585;SDS011;12743;52.262;6.172;2022-07-01T13:44:31;4.67;;;0.77;;
24585;SDS011;12743;52.262;6.172;2022-07-01T13:46:57;3.83;;;0.30;;
24585;SDS011;12743;52.262;6.172;2022-07-01T13:49:22;5.73;;;0.60;;
24585;SDS011;12743;52.262;6.172;2022-07-01T13:51:47;3.33;;;0.30;;
24585;SDS011;12743;52.262;6.172;2022-07-01T13:54:13;3.93;;;0.30;;
24585;SDS011;12743;52.262;6.172;2022-07-01T13:56:38;4.43;;;0.47;;
24585;SDS011;12743;52.262;6.172;2022-07-01T13:59:03;5.20;;;0.40;;
24585;SDS011;12743;52.262;6.172;2022-07-01T14:01:29;3.23;;;0.33;;
24585;SDS011;12743;52.262;6.172;2022-07-01T14:03:55;2.63;;;0.40;;
24585;SDS011;12743;52.262;6.172;2022-07-01T14:06:20;6.55;;;0.70;;
24585;SDS011;12743;52.262;6.172;2022-07-01T14:08:46;4.50;;;0.40;;
24585;SDS011;12743;52.262;6.172;2022-07-01T14:11:12;3.67;;;0.50;;
24585;SDS011;12743;52.262;6.172;2022-07-01T14:13:38;5.85;;;0.65;;
24585;SDS011;12743;52.262;6.172;2022-07-01T14:16:05;5.03;;;0.50;;
24585;SDS011;12743;52.262;6.172;2022-07-01T14:18:35;6.32;;;0.60;;
24585;SDS011;12743;52.262;6.172;2022-07-01T14:21:02;3.72;;;0.50;;
24585;SDS011;12743;52.262;6.172;2022-07-01T14:23:29;6.23;;;0.70;;
24585;SDS011;12743;52.262;6.172;2022-07-01T14:25:54;3.17;;;0.75;;
24585;SDS011;12743;52.262;6.172;2022-07-01T14:28:20;2.37;;;0.57;;
24585;SDS011;12743;52.262;6.172;2022-07-01T14:30:45;5.27;;;1.03;;
24585;SDS011;12743;52.262;6.172;2022-07-01T14:33:11;3.15;;;0.60;;
24585;SDS011;12743;52.262;6.172;2022-07-01T14:35:36;4.70;;;0.70;;
24585;SDS011;12743;52.262;6.172;2022-07-01T14:38:02;4.43;;;0.60;;
24585;SDS011;12743;52.262;6.172;2022-07-01T14:40:28;2.90;;;0.53;;
24585;SDS011;12743;52.262;6.172;2022-07-01T14:42:53;4.22;;;0.60;;
24585;SDS011;12743;52.262;6.172;2022-07-01T14:45:19;3.10;;;0.77;;
24585;SDS011;12743;52.262;6.172;2022-07-01T14:47:44;3.30;;;0.50;;
24585;SDS011;12743;52.262;6.172;2022-07-01T14:50:10;4.22;;;0.70;;
24585;SDS011;12743;52.262;6.172;2022-07-01T14:52:35;3.77;;;0.70;;
24585;SDS011;12743;52.262;6.172;2022-07-01T14:55:01;5.23;;;0.60;;
24585;SDS011;12743;52.262;6.172;2022-07-01T14:57:27;5.53;;;0.80;;
24585;SDS011;12743;52.262;6.172;2022-07-01T14:59:52;3.33;;;0.53;;
24585;SDS011;12743;52.262;6.172;2022-07-01T15:02:17;4.07;;;0.90;;
24585;SDS011;12743;52.262;6.172;2022-07-01T15:04:43;5.68;;;1.10;;
24585;SDS011;12743;52.262;6.172;2022-07-01T15:07:11;3.88;;;0.90;;